< Typhoon 201721 2017 Season Typhoon 201723 >
Typhoon 201722 (SAOLA)
General InformationTrack Information on Google MapsDetailed Wind InformationForecast History on Google MapsAccess Analytics MapList of All Images || NewsDisaster Info.WeblogTrackbackTyphoon FrontTwiphoonTyphoon Now!Typhoon ImaginationJMA Disaster Info. XMLResourceGoogle EarthGE AnimationAtom FeedGeoJSON
Detalied Best Track (Time Zone = UTC)
Year Month Day Hour Lat. Long. Pressure (hPa) Wind (kt) Class Image Chart
2017 10 22 06 9.1 148.3 1004 0 2 Image Chart
2017 10 22 12 9.0 148.3 1006 0 2 Image Chart
2017 10 22 18 9.1 148.0 1004 0 2 Image Chart
2017 10 23 00 9.2 147.7 1006 0 2 Image Chart
2017 10 23 06 9.3 147.4 1004 0 2 Image Chart
2017 10 23 12 9.5 147.0 1006 0 2 Image Chart
2017 10 23 18 10.2 145.4 1002 0 2 Image Chart
2017 10 24 00 11.7 144.0 1004 0 2 Image Chart
2017 10 24 06 13.2 141.9 1002 0 2 Image Chart
2017 10 24 12 14.5 139.3 1000 35 3 Image Chart
2017 10 24 18 14.8 137.6 1000 35 3 Image Chart
2017 10 25 00 15.1 136.6 998 40 3 Image Chart
2017 10 25 06 15.7 135.7 998 40 3 Image Chart
2017 10 25 12 16.7 134.6 998 40 3 Image Chart
2017 10 25 18 17.1 133.4 996 40 3 Image Chart
2017 10 26 00 17.6 132.6 992 45 3 Image Chart
2017 10 26 06 18.4 132.1 992 45 3 Image Chart
2017 10 26 12 19.6 131.2 992 45 3 Image Chart
2017 10 26 18 20.5 130.5 992 45 3 Image Chart
2017 10 27 00 21.3 129.8 990 50 4 Image Chart
2017 10 27 06 22.4 128.9 990 50 4 Image Chart
2017 10 27 12 23.5 128.5 985 55 4 Image Chart
2017 10 27 15 23.8 128.3 985 55 4 Image Chart
2017 10 27 18 24.2 128.3 975 60 4 Image Chart
2017 10 27 21 25.0 128.1 975 60 4 Image Chart
2017 10 28 00 25.6 128.0 975 60 4 Image Chart
2017 10 28 03 26.3 128.2 975 60 4 Image Chart
2017 10 28 04 26.6 128.2 975 60 4 Image Chart
2017 10 28 06 27.1 128.4 975 60 4 Image Chart
2017 10 28 09 27.9 128.7 975 60 4 Image Chart
2017 10 28 12 28.7 129.4 975 60 4 Image Chart
2017 10 28 15 29.2 130.0 975 60 4 Image Chart
2017 10 28 18 29.9 130.4 975 60 4 Image Chart
2017 10 28 21 30.7 131.5 975 60 4 Image Chart
2017 10 29 00 31.2 132.9 975 60 4 Image Chart
2017 10 29 03 31.5 133.9 975 60 4 Image Chart
2017 10 29 06 32.4 135.8 975 60 4 Image Chart
2017 10 29 09 33.3 138.0 975 60 4 Image Chart
2017 10 29 12 34.8 141.1 988 0 6 Image Chart
Japan Meteorological Agency Best Track Data | Correction Date : 2017-12-08
< Typhoon 201721 2017 Season Typhoon 201723 >

Help